sensor_id;sensor_type;location;lat;lon;timestamp;temperature;humidity
75457;SHT31;64036;48.266;14.192;2023-11-19T00:00:43;4.30;80.91
75457;SHT31;64036;48.266;14.192;2023-11-19T00:03:09;4.30;80.99
75457;SHT31;64036;48.266;14.192;2023-11-19T00:05:36;4.31;81.05
75457;SHT31;64036;48.266;14.192;2023-11-19T00:08:01;4.28;81.14
75457;SHT31;64036;48.266;14.192;2023-11-19T00:10:27;4.28;81.23
75457;SHT31;64036;48.266;14.192;2023-11-19T00:12:53;4.27;81.32
75457;SHT31;64036;48.266;14.192;2023-11-19T00:15:19;4.26;81.45
75457;SHT31;64036;48.266;14.192;2023-11-19T00:17:47;4.24;81.54
75457;SHT31;64036;48.266;14.192;2023-11-19T00:20:17;4.22;81.63
75457;SHT31;64036;48.266;14.192;2023-11-19T00:22:43;4.22;81.72
75457;SHT31;64036;48.266;14.192;2023-11-19T00:25:11;4.20;81.72
75457;SHT31;64036;48.266;14.192;2023-11-19T00:27:37;4.15;81.81
75457;SHT31;64036;48.266;14.192;2023-11-19T00:30:03;4.15;81.89
75457;SHT31;64036;48.266;14.192;2023-11-19T00:32:31;4.12;82.00
75457;SHT31;64036;48.266;14.192;2023-11-19T00:35:00;4.12;82.00
75457;SHT31;64036;48.266;14.192;2023-11-19T00:37:25;4.11;82.06
75457;SHT31;64036;48.266;14.192;2023-11-19T00:39:51;4.10;82.11
75457;SHT31;64036;48.266;14.192;2023-11-19T00:42:17;4.06;82.10
75457;SHT31;64036;48.266;14.192;2023-11-19T00:44:43;4.02;82.12
75457;SHT31;64036;48.266;14.192;2023-11-19T00:47:08;3.99;82.16
75457;SHT31;64036;48.266;14.192;2023-11-19T00:49:37;3.98;82.20
75457;SHT31;64036;48.266;14.192;2023-11-19T00:52:03;3.98;82.22
75457;SHT31;64036;48.266;14.192;2023-11-19T00:54:29;3.97;82.23
75457;SHT31;64036;48.266;14.192;2023-11-19T00:56:55;3.95;82.24
75457;SHT31;64036;48.266;14.192;2023-11-19T00:59:21;3.92;82.30
75457;SHT31;64036;48.266;14.192;2023-11-19T01:01:47;3.88;82.30
75457;SHT31;64036;48.266;14.192;2023-11-19T01:04:18;3.86;82.38
75457;SHT31;64036;48.266;14.192;2023-11-19T01:06:44;3.89;82.42
75457;SHT31;64036;48.266;14.192;2023-11-19T01:09:10;3.87;82.38
75457;SHT31;64036;48.266;14.192;2023-11-19T01:11:35;3.89;82.41
75457;SHT31;64036;48.266;14.192;2023-11-19T01:14:01;3.89;82.50
75457;SHT31;64036;48.266;14.192;2023-11-19T01:16:27;3.86;82.49
75457;SHT31;64036;48.266;14.192;2023-11-19T01:18:53;3.83;82.56
75457;SHT31;64036;48.266;14.192;2023-11-19T01:21:18;3.82;82.58
75457;SHT31;64036;48.266;14.192;2023-11-19T01:23:47;3.81;82.58
75457;SHT31;64036;48.266;14.192;2023-11-19T01:26:12;3.80;82.63
75457;SHT31;64036;48.266;14.192;2023-11-19T01:28:41;3.76;82.71
75457;SHT31;64036;48.266;14.192;2023-11-19T01:31:10;3.70;82.81
75457;SHT31;64036;48.266;14.192;2023-11-19T01:33:40;3.65;82.97
75457;SHT31;64036;48.266;14.192;2023-11-19T01:36:09;3.59;83.17
75457;SHT31;64036;48.266;14.192;2023-11-19T01:38:35;3.56;83.32
75457;SHT31;64036;48.266;14.192;2023-11-19T01:41:01;3.54;83.48
75457;SHT31;64036;48.266;14.192;2023-11-19T01:43:38;3.52;83.47
75457;SHT31;64036;48.266;14.192;2023-11-19T01:46:06;3.54;83.53
75457;SHT31;64036;48.266;14.192;2023-11-19T01:48:35;3.55;83.56
75457;SHT31;64036;48.266;14.192;2023-11-19T01:51:01;3.55;83.65
75457;SHT31;64036;48.266;14.192;2023-11-19T01:53:29;3.55;83.70
75457;SHT31;64036;48.266;14.192;2023-11-19T01:55:54;3.52;83.73
75457;SHT31;64036;48.266;14.192;2023-11-19T01:58:21;3.53;83.76
75457;SHT31;64036;48.266;14.192;2023-11-19T02:00:48;3.51;83.74
75457;SHT31;64036;48.266;14.192;2023-11-19T02:03:14;3.49;83.81
75457;SHT31;64036;48.266;14.192;2023-11-19T02:05:40;3.49;83.80
75457;SHT31;64036;48.266;14.192;2023-11-19T02:08:06;3.51;83.80
75457;SHT31;64036;48.266;14.192;2023-11-19T02:10:32;3.53;83.78
75457;SHT31;64036;48.266;14.192;2023-11-19T02:13:00;3.57;83.73
75457;SHT31;64036;48.266;14.192;2023-11-19T02:15:26;3.58;83.69
75457;SHT31;64036;48.266;14.192;2023-11-19T02:17:52;3.60;83.63
75457;SHT31;64036;48.266;14.192;2023-11-19T02:20:17;3.61;83.60
75457;SHT31;64036;48.266;14.192;2023-11-19T02:22:48;3.62;83.61
75457;SHT31;64036;48.266;14.192;2023-11-19T02:25:25;3.62;83.60
75457;SHT31;64036;48.266;14.192;2023-11-19T02:27:56;3.63;83.60
75457;SHT31;64036;48.266;14.192;2023-11-19T02:30:23;3.63;83.53
75457;SHT31;64036;48.266;14.192;2023-11-19T02:32:52;3.64;83.58
75457;SHT31;64036;48.266;14.192;2023-11-19T02:35:19;3.61;83.53
75457;SHT31;64036;48.266;14.192;2023-11-19T02:37:46;3.56;83.66
75457;SHT31;64036;48.266;14.192;2023-11-19T02:40:15;3.53;83.74
75457;SHT31;64036;48.266;14.192;2023-11-19T02:42:44;3.51;83.87
75457;SHT31;64036;48.266;14.192;2023-11-19T02:45:09;3.49;83.94
75457;SHT31;64036;48.266;14.192;2023-11-19T02:47:42;3.45;84.01
75457;SHT31;64036;48.266;14.192;2023-11-19T02:50:11;3.46;84.05
75457;SHT31;64036;48.266;14.192;2023-11-19T02:52:43;3.48;84.02
75457;SHT31;64036;48.266;14.192;2023-11-19T02:55:11;3.49;83.99
75457;SHT31;64036;48.266;14.192;2023-11-19T02:57:42;3.49;84.00
75457;SHT31;64036;48.266;14.192;2023-11-19T03:00:16;3.52;83.98
75457;SHT31;64036;48.266;14.192;2023-11-19T03:02:43;3.53;83.89
75457;SHT31;64036;48.266;14.192;2023-11-19T03:05:13;3.54;83.80
75457;SHT31;64036;48.266;14.192;2023-11-19T03:07:42;3.55;83.81
75457;SHT31;64036;48.266;14.192;2023-11-19T03:10:09;3.56;83.80
75457;SHT31;64036;48.266;14.192;2023-11-19T03:12:38;3.57;83.70
75457;SHT31;64036;48.266;14.192;2023-11-19T03:15:10;3.58;83.70
75457;SHT31;64036;48.266;14.192;2023-11-19T03:17:39;3.59;83.74
75457;SHT31;64036;48.266;14.192;2023-11-19T03:20:10;3.61;83.74
75457;SHT31;64036;48.266;14.192;2023-11-19T03:22:36;3.64;83.74
75457;SHT31;64036;48.266;14.192;2023-11-19T03:25:03;3.65;83.70
75457;SHT31;64036;48.266;14.192;2023-11-19T03:27:28;3.67;83.63
75457;SHT31;64036;48.266;14.192;2023-11-19T03:29:54;3.70;83.65
75457;SHT31;64036;48.266;14.192;2023-11-19T03:32:20;3.70;83.61
75457;SHT31;64036;48.266;14.192;2023-11-19T03:34:45;3.69;83.54
75457;SHT31;64036;48.266;14.192;2023-11-19T03:37:11;3.66;83.56
75457;SHT31;64036;48.266;14.192;2023-11-19T03:39:41;3.67;83.60
75457;SHT31;64036;48.266;14.192;2023-11-19T03:42:06;3.67;83.61
75457;SHT31;64036;48.266;14.192;2023-11-19T03:44:32;3.67;83.60
75457;SHT31;64036;48.266;14.192;2023-11-19T03:46:57;3.67;83.65
75457;SHT31;64036;48.266;14.192;2023-11-19T03:49:23;3.62;83.71
75457;SHT31;64036;48.266;14.192;2023-11-19T03:51:49;3.57;83.79
75457;SHT31;64036;48.266;14.192;2023-11-19T03:54:14;3.57;83.83
75457;SHT31;64036;48.266;14.192;2023-11-19T03:56:40;3.56;83.92
75457;SHT31;64036;48.266;14.192;2023-11-19T03:59:06;3.57;83.99
75457;SHT31;64036;48.266;14.192;2023-11-19T04:01:33;3.53;84.00
75457;SHT31;64036;48.266;14.192;2023-11-19T04:03:58;3.52;84.05
75457;SHT31;64036;48.266;14.192;2023-11-19T04:06:25;3.53;84.07
75457;SHT31;64036;48.266;14.192;2023-11-19T04:08:51;3.52;84.08
75457;SHT31;64036;48.266;14.192;2023-11-19T04:11:16;3.50;84.07
75457;SHT31;64036;48.266;14.192;2023-11-19T04:13:42;3.49;84.09
75457;SHT31;64036;48.266;14.192;2023-11-19T04:16:09;3.49;84.10
75457;SHT31;64036;48.266;14.192;2023-11-19T04:18:35;3.52;84.09
75457;SHT31;64036;48.266;14.192;2023-11-19T04:21:07;3.54;84.05
75457;SHT31;64036;48.266;14.192;2023-11-19T04:23:33;3.55;83.96
75457;SHT31;64036;48.266;14.192;2023-11-19T04:26:01;3.56;83.94
75457;SHT31;64036;48.266;14.192;2023-11-19T04:28:29;3.55;83.87
75457;SHT31;64036;48.266;14.192;2023-11-19T04:30:55;3.52;83.87
75457;SHT31;64036;48.266;14.192;2023-11-19T04:33:21;3.54;83.93
75457;SHT31;64036;48.266;14.192;2023-11-19T04:35:46;3.54;83.91
75457;SHT31;64036;48.266;14.192;2023-11-19T04:38:12;3.55;84.00
75457;SHT31;64036;48.266;14.192;2023-11-19T04:40:38;3.57;84.00
75457;SHT31;64036;48.266;14.192;2023-11-19T04:43:03;3.55;83.93
75457;SHT31;64036;48.266;14.192;2023-11-19T04:45:29;3.55;83.99
75457;SHT31;64036;48.266;14.192;2023-11-19T04:47:55;3.56;84.07
75457;SHT31;64036;48.266;14.192;2023-11-19T04:50:20;3.60;84.10
75457;SHT31;64036;48.266;14.192;2023-11-19T04:52:46;3.60;84.07
75457;SHT31;64036;48.266;14.192;2023-11-19T04:55:12;3.64;84.11
75457;SHT31;64036;48.266;14.192;2023-11-19T04:57:39;3.68;84.07
75457;SHT31;64036;48.266;14.192;2023-11-19T05:00:08;3.70;84.00
75457;SHT31;64036;48.266;14.192;2023-11-19T05:02:36;3.72;83.97
75457;SHT31;64036;48.266;14.192;2023-11-19T05:05:02;3.72;83.90
75457;SHT31;64036;48.266;14.192;2023-11-19T05:07:29;3.74;83.90
75457;SHT31;64036;48.266;14.192;2023-11-19T05:09:55;3.74;83.88
75457;SHT31;64036;48.266;14.192;2023-11-19T05:12:20;3.74;83.84
75457;SHT31;64036;48.266;14.192;2023-11-19T05:14:46;3.74;83.86
75457;SHT31;64036;48.266;14.192;2023-11-19T05:17:15;3.75;83.89
75457;SHT31;64036;48.266;14.192;2023-11-19T05:19:43;3.76;83.87
75457;SHT31;64036;48.266;14.192;2023-11-19T05:22:08;3.78;83.88
75457;SHT31;64036;48.266;14.192;2023-11-19T05:24:34;3.81;83.85
75457;SHT31;64036;48.266;14.192;2023-11-19T05:27:01;3.82;83.87
75457;SHT31;64036;48.266;14.192;2023-11-19T05:29:27;3.85;83.84
75457;SHT31;64036;48.266;14.192;2023-11-19T05:31:53;3.87;83.80
75457;SHT31;64036;48.266;14.192;2023-11-19T05:34:20;3.90;83.88
75457;SHT31;64036;48.266;14.192;2023-11-19T05:36:46;3.95;83.87
75457;SHT31;64036;48.266;14.192;2023-11-19T05:39:12;3.97;83.74
75457;SHT31;64036;48.266;14.192;2023-11-19T05:41:38;3.98;83.69
75457;SHT31;64036;48.266;14.192;2023-11-19T05:44:04;3.99;83.66
75457;SHT31;64036;48.266;14.192;2023-11-19T05:46:29;3.99;83.59
75457;SHT31;64036;48.266;14.192;2023-11-19T05:48:55;3.98;83.56
75457;SHT31;64036;48.266;14.192;2023-11-19T05:51:20;4.00;83.59
75457;SHT31;64036;48.266;14.192;2023-11-19T05:53:46;4.01;83.65
75457;SHT31;64036;48.266;14.192;2023-11-19T05:56:12;4.02;83.56
75457;SHT31;64036;48.266;14.192;2023-11-19T05:58:38;4.04;83.59
75457;SHT31;64036;48.266;14.192;2023-11-19T06:01:05;4.01;83.50
75457;SHT31;64036;48.266;14.192;2023-11-19T06:03:32;3.99;83.54
75457;SHT31;64036;48.266;14.192;2023-11-19T06:05:58;3.99;83.53
75457;SHT31;64036;48.266;14.192;2023-11-19T06:08:24;4.00;83.59
75457;SHT31;64036;48.266;14.192;2023-11-19T06:10:52;3.98;83.54
75457;SHT31;64036;48.266;14.192;2023-11-19T06:13:17;3.98;83.54
75457;SHT31;64036;48.266;14.192;2023-11-19T06:15:43;3.92;83.55
75457;SHT31;64036;48.266;14.192;2023-11-19T06:18:09;3.86;83.73
75457;SHT31;64036;48.266;14.192;2023-11-19T06:20:36;3.79;83.89
75457;SHT31;64036;48.266;14.192;2023-11-19T06:23:02;3.72;84.07
75457;SHT31;64036;48.266;14.192;2023-11-19T06:25:27;3.69;84.11
75457;SHT31;64036;48.266;14.192;2023-11-19T06:27:53;3.66;84.18
75457;SHT31;64036;48.266;14.192;2023-11-19T06:30:19;3.66;84.21
75457;SHT31;64036;48.266;14.192;2023-11-19T06:32:45;3.66;84.20
75457;SHT31;64036;48.266;14.192;2023-11-19T06:35:11;3.67;84.18
75457;SHT31;64036;48.266;14.192;2023-11-19T06:37:40;3.73;84.21
75457;SHT31;64036;48.266;14.192;2023-11-19T06:40:06;3.78;84.13
75457;SHT31;64036;48.266;14.192;2023-11-19T06:42:34;3.81;84.00
75457;SHT31;64036;48.266;14.192;2023-11-19T06:45:00;3.83;83.93
75457;SHT31;64036;48.266;14.192;2023-11-19T06:47:26;3.81;83.90
75457;SHT31;64036;48.266;14.192;2023-11-19T06:49:52;3.82;83.90
75457;SHT31;64036;48.266;14.192;2023-11-19T06:52:18;3.82;83.85
75457;SHT31;64036;48.266;14.192;2023-11-19T06:54:44;3.84;83.89
75457;SHT31;64036;48.266;14.192;2023-11-19T06:57:10;3.89;83.87
75457;SHT31;64036;48.266;14.192;2023-11-19T06:59:36;3.89;83.81
75457;SHT31;64036;48.266;14.192;2023-11-19T07:02:02;3.92;83.76
75457;SHT31;64036;48.266;14.192;2023-11-19T07:04:29;3.91;83.70
75457;SHT31;64036;48.266;14.192;2023-11-19T07:06:55;3.85;83.60
75457;SHT31;64036;48.266;14.192;2023-11-19T07:09:21;3.80;83.67
75457;SHT31;64036;48.266;14.192;2023-11-19T07:11:48;3.76;83.75
75457;SHT31;64036;48.266;14.192;2023-11-19T07:14:15;3.73;83.86
75457;SHT31;64036;48.266;14.192;2023-11-19T07:16:41;3.77;83.98
75457;SHT31;64036;48.266;14.192;2023-11-19T07:19:09;3.83;83.93
75457;SHT31;64036;48.266;14.192;2023-11-19T07:21:34;3.91;83.91
75457;SHT31;64036;48.266;14.192;2023-11-19T07:24:03;3.95;83.77
75457;SHT31;64036;48.266;14.192;2023-11-19T07:26:29;3.99;83.70
75457;SHT31;64036;48.266;14.192;2023-11-19T07:28:58;4.04;83.66
75457;SHT31;64036;48.266;14.192;2023-11-19T07:31:24;4.09;83.60
75457;SHT31;64036;48.266;14.192;2023-11-19T07:33:49;4.13;83.60
75457;SHT31;64036;48.266;14.192;2023-11-19T07:36:15;4.19;83.53
75457;SHT31;64036;48.266;14.192;2023-11-19T07:38:43;4.22;83.46
75457;SHT31;64036;48.266;14.192;2023-11-19T07:41:08;4.24;83.42
75457;SHT31;64036;48.266;14.192;2023-11-19T07:43:38;4.27;83.41
75457;SHT31;64036;48.266;14.192;2023-11-19T07:46:05;4.29;83.35
75457;SHT31;64036;48.266;14.192;2023-11-19T07:48:33;4.32;83.29
75457;SHT31;64036;48.266;14.192;2023-11-19T07:51:00;4.34;83.29
75457;SHT31;64036;48.266;14.192;2023-11-19T07:53:26;4.38;83.27
75457;SHT31;64036;48.266;14.192;2023-11-19T07:55:51;4.43;83.27
75457;SHT31;64036;48.266;14.192;2023-11-19T07:58:17;4.46;83.34
75457;SHT31;64036;48.266;14.192;2023-11-19T08:00:43;4.49;83.30
75457;SHT31;64036;48.266;14.192;2023-11-19T08:03:08;4.51;83.30
75457;SHT31;64036;48.266;14.192;2023-11-19T08:05:34;4.55;83.28
75457;SHT31;64036;48.266;14.192;2023-11-19T08:08:01;4.64;83.34
75457;SHT31;64036;48.266;14.192;2023-11-19T08:10:26;4.71;83.22
75457;SHT31;64036;48.266;14.192;2023-11-19T08:12:52;4.75;83.11
75457;SHT31;64036;48.266;14.192;2023-11-19T08:15:18;4.77;83.00
75457;SHT31;64036;48.266;14.192;2023-11-19T08:17:43;4.79;83.02
75457;SHT31;64036;48.266;14.192;2023-11-19T08:20:09;4.84;83.10
75457;SHT31;64036;48.266;14.192;2023-11-19T08:22:38;4.89;83.14
75457;SHT31;64036;48.266;14.192;2023-11-19T08:25:04;4.95;83.20
75457;SHT31;64036;48.266;14.192;2023-11-19T08:27:30;4.95;83.02
75457;SHT31;64036;48.266;14.192;2023-11-19T08:29:56;4.98;83.00
75457;SHT31;64036;48.266;14.192;2023-11-19T08:32:24;4.98;82.99
75457;SHT31;64036;48.266;14.192;2023-11-19T08:34:50;4.99;83.00
75457;SHT31;64036;48.266;14.192;2023-11-19T08:37:16;5.04;82.99
75457;SHT31;64036;48.266;14.192;2023-11-19T08:39:45;5.10;83.02
75457;SHT31;64036;48.266;14.192;2023-11-19T08:42:13;5.19;83.18
75457;SHT31;64036;48.266;14.192;2023-11-19T08:44:39;5.26;83.06
75457;SHT31;64036;48.266;14.192;2023-11-19T08:47:08;5.33;83.05
75457;SHT31;64036;48.266;14.192;2023-11-19T08:49:34;5.42;83.05
75457;SHT31;64036;48.266;14.192;2023-11-19T08:52:00;5.49;82.91
75457;SHT31;64036;48.266;14.192;2023-11-19T08:54:25;5.51;82.72
75457;SHT31;64036;48.266;14.192;2023-11-19T08:56:51;5.54;82.60
75457;SHT31;64036;48.266;14.192;2023-11-19T08:59:17;5.57;82.47
75457;SHT31;64036;48.266;14.192;2023-11-19T09:01:44;5.60;82.40
75457;SHT31;64036;48.266;14.192;2023-11-19T09:04:09;5.66;82.46
75457;SHT31;64036;48.266;14.192;2023-11-19T09:06:35;5.70;82.38
75457;SHT31;64036;48.266;14.192;2023-11-19T09:09:01;5.74;82.34
75457;SHT31;64036;48.266;14.192;2023-11-19T09:11:28;5.81;82.37
75457;SHT31;64036;48.266;14.192;2023-11-19T09:13:54;5.85;82.24
75457;SHT31;64036;48.266;14.192;2023-11-19T09:16:19;5.86;82.16
75457;SHT31;64036;48.266;14.192;2023-11-19T09:18:45;5.86;82.00
75457;SHT31;64036;48.266;14.192;2023-11-19T09:21:11;5.84;82.06
75457;SHT31;64036;48.266;14.192;2023-11-19T09:23:37;5.82;82.00
75457;SHT31;64036;48.266;14.192;2023-11-19T09:26:06;5.79;82.00
75457;SHT31;64036;48.266;14.192;2023-11-19T09:28:33;5.82;82.16
75457;SHT31;64036;48.266;14.192;2023-11-19T09:30:59;5.87;82.20
75457;SHT31;64036;48.266;14.192;2023-11-19T09:33:24;5.88;82.05
75457;SHT31;64036;48.266;14.192;2023-11-19T09:35:51;5.90;82.01
75457;SHT31;64036;48.266;14.192;2023-11-19T09:38:17;5.93;82.04
75457;SHT31;64036;48.266;14.192;2023-11-19T09:40:42;5.97;81.84
75457;SHT31;64036;48.266;14.192;2023-11-19T09:43:08;6.00;81.89
75457;SHT31;64036;48.266;14.192;2023-11-19T09:45:49;6.02;81.74
75457;SHT31;64036;48.266;14.192;2023-11-19T09:48:19;6.05;81.82
75457;SHT31;64036;48.266;14.192;2023-11-19T09:50:47;6.09;81.90
75457;SHT31;64036;48.266;14.192;2023-11-19T09:53:14;6.14;81.89
75457;SHT31;64036;48.266;14.192;2023-11-19T09:55:43;6.15;81.82
75457;SHT31;64036;48.266;14.192;2023-11-19T09:58:08;6.18;81.84
75457;SHT31;64036;48.266;14.192;2023-11-19T10:00:36;6.25;81.92
75457;SHT31;64036;48.266;14.192;2023-11-19T10:03:01;6.27;81.78
75457;SHT31;64036;48.266;14.192;2023-11-19T10:05:30;6.26;81.71
75457;SHT31;64036;48.266;14.192;2023-11-19T10:07:55;6.25;81.59
75457;SHT31;64036;48.266;14.192;2023-11-19T10:10:21;6.24;81.61
75457;SHT31;64036;48.266;14.192;2023-11-19T10:12:47;6.28;81.72
75457;SHT31;64036;48.266;14.192;2023-11-19T10:15:22;6.29;81.69
75457;SHT31;64036;48.266;14.192;2023-11-19T10:17:50;6.31;81.59
75457;SHT31;64036;48.266;14.192;2023-11-19T10:20:15;6.29;81.61
75457;SHT31;64036;48.266;14.192;2023-11-19T10:22:41;6.34;81.76
75457;SHT31;64036;48.266;14.192;2023-11-19T10:25:23;6.35;81.58
75457;SHT31;64036;48.266;14.192;2023-11-19T10:27:53;6.40;81.74
75457;SHT31;64036;48.266;14.192;2023-11-19T10:30:20;6.39;81.44
75457;SHT31;64036;48.266;14.192;2023-11-19T10:32:54;6.37;81.58
75457;SHT31;64036;48.266;14.192;2023-11-19T10:35:28;6.38;81.64
75457;SHT31;64036;48.266;14.192;2023-11-19T10:37:53;6.45;81.81
75457;SHT31;64036;48.266;14.192;2023-11-19T10:40:20;6.53;81.86
75457;SHT31;64036;48.266;14.192;2023-11-19T10:42:46;6.57;81.76
75457;SHT31;64036;48.266;14.192;2023-11-19T10:45:23;6.63;81.75
75457;SHT31;64036;48.266;14.192;2023-11-19T10:47:50;6.65;81.62
75457;SHT31;64036;48.266;14.192;2023-11-19T10:50:19;6.66;81.58
75457;SHT31;64036;48.266;14.192;2023-11-19T10:52:45;6.64;81.56
75457;SHT31;64036;48.266;14.192;2023-11-19T10:55:12;6.63;81.65
75457;SHT31;64036;48.266;14.192;2023-11-19T10:57:40;6.68;81.80
75457;SHT31;64036;48.266;14.192;2023-11-19T11:00:09;6.70;81.68
75457;SHT31;64036;48.266;14.192;2023-11-19T11:02:37;6.72;81.69
75457;SHT31;64036;48.266;14.192;2023-11-19T11:05:07;6.72;81.63
75457;SHT31;64036;48.266;14.192;2023-11-19T11:07:33;6.77;81.85
75457;SHT31;64036;48.266;14.192;2023-11-19T11:09:59;6.78;81.74
75457;SHT31;64036;48.266;14.192;2023-11-19T11:12:26;6.80;81.84
75457;SHT31;64036;48.266;14.192;2023-11-19T11:14:52;6.81;81.72
75457;SHT31;64036;48.266;14.192;2023-11-19T11:17:18;6.79;81.49
75457;SHT31;64036;48.266;14.192;2023-11-19T11:19:45;6.81;81.57
75457;SHT31;64036;48.266;14.192;2023-11-19T11:22:11;6.86;81.60
75457;SHT31;64036;48.266;14.192;2023-11-19T11:30:00;7.02;81.66
75457;SHT31;64036;48.266;14.192;2023-11-19T11:32:59;7.08;81.60
75457;SHT31;64036;48.266;14.192;2023-11-19T11:35:30;7.17;81.61
75457;SHT31;64036;48.266;14.192;2023-11-19T11:38:15;7.25;81.54
75457;SHT31;64036;48.266;14.192;2023-11-19T11:54:08;7.72;80.95
75457;SHT31;64036;48.266;14.192;2023-11-19T11:56:37;7.85;81.00
75457;SHT31;64036;48.266;14.192;2023-11-19T11:59:19;8.09;81.09
75457;SHT31;64036;48.266;14.192;2023-11-19T12:01:57;8.16;80.79
75457;SHT31;64036;48.266;14.192;2023-11-19T12:04:26;8.20;80.76
75457;SHT31;64036;48.266;14.192;2023-11-19T12:09:45;8.17;80.44
75457;SHT31;64036;48.266;14.192;2023-11-19T12:12:41;8.14;80.20
75457;SHT31;64036;48.266;14.192;2023-11-19T12:15:07;8.12;80.00
75457;SHT31;64036;48.266;14.192;2023-11-19T12:20:28;8.09;79.91
75457;SHT31;64036;48.266;14.192;2023-11-19T12:22:56;8.11;79.78
75457;SHT31;64036;48.266;14.192;2023-11-19T12:25:22;8.06;79.64
75457;SHT31;64036;48.266;14.192;2023-11-19T12:27:51;8.15;80.05
75457;SHT31;64036;48.266;14.192;2023-11-19T12:30:25;8.28;80.00
75457;SHT31;64036;48.266;14.192;2023-11-19T12:32:51;8.30;79.62
75457;SHT31;64036;48.266;14.192;2023-11-19T12:35:20;8.29;79.47
75457;SHT31;64036;48.266;14.192;2023-11-19T12:37:47;8.30;79.27
75457;SHT31;64036;48.266;14.192;2023-11-19T12:40:17;8.29;79.19
75457;SHT31;64036;48.266;14.192;2023-11-19T12:42:47;8.31;79.26
75457;SHT31;64036;48.266;14.192;2023-11-19T12:45:13;8.35;79.23
75457;SHT31;64036;48.266;14.192;2023-11-19T12:47:41;8.37;79.18
75457;SHT31;64036;48.266;14.192;2023-11-19T12:50:07;8.43;79.39
75457;SHT31;64036;48.266;14.192;2023-11-19T12:52:34;8.47;79.30
75457;SHT31;64036;48.266;14.192;2023-11-19T12:55:01;8.36;79.00
75457;SHT31;64036;48.266;14.192;2023-11-19T12:57:37;8.37;79.13
75457;SHT31;64036;48.266;14.192;2023-11-19T13:00:06;8.36;79.04
75457;SHT31;64036;48.266;14.192;2023-11-19T13:02:48;8.35;79.20
75457;SHT31;64036;48.266;14.192;2023-11-19T13:05:25;8.27;79.01
75457;SHT31;64036;48.266;14.192;2023-11-19T13:08:25;8.24;79.08
75457;SHT31;64036;48.266;14.192;2023-11-19T13:13:21;8.57;79.04
75457;SHT31;64036;48.266;14.192;2023-11-19T13:15:47;8.70;78.83
75457;SHT31;64036;48.266;14.192;2023-11-19T13:18:15;8.77;78.68
75457;SHT31;64036;48.266;14.192;2023-11-19T13:20:41;8.81;78.53
75457;SHT31;64036;48.266;14.192;2023-11-19T13:23:07;8.81;78.58
75457;SHT31;64036;48.266;14.192;2023-11-19T13:25:33;8.77;78.64
75457;SHT31;64036;48.266;14.192;2023-11-19T13:27:58;8.79;78.98
75457;SHT31;64036;48.266;14.192;2023-11-19T13:30:25;8.86;79.04
75457;SHT31;64036;48.266;14.192;2023-11-19T13:32:51;8.95;78.92
75457;SHT31;64036;48.266;14.192;2023-11-19T13:35:18;8.93;78.70
75457;SHT31;64036;48.266;14.192;2023-11-19T13:37:44;8.91;78.70
75457;SHT31;64036;48.266;14.192;2023-11-19T13:40:10;8.89;78.60
75457;SHT31;64036;48.266;14.192;2023-11-19T13:42:39;8.76;78.61
75457;SHT31;64036;48.266;14.192;2023-11-19T13:45:15;8.63;78.88
75457;SHT31;64036;48.266;14.192;2023-11-19T13:47:43;8.40;79.04
75457;SHT31;64036;48.266;14.192;2023-11-19T13:50:10;8.25;79.42
75457;SHT31;64036;48.266;14.192;2023-11-19T13:52:37;8.24;79.69
75457;SHT31;64036;48.266;14.192;2023-11-19T13:55:07;8.28;79.82
75457;SHT31;64036;48.266;14.192;2023-11-19T13:57:34;8.31;79.87
75457;SHT31;64036;48.266;14.192;2023-11-19T14:00:01;8.32;79.89
75457;SHT31;64036;48.266;14.192;2023-11-19T14:02:31;8.34;79.74
75457;SHT31;64036;48.266;14.192;2023-11-19T14:04:57;8.38;79.81
75457;SHT31;64036;48.266;14.192;2023-11-19T14:07:22;8.44;79.84
75457;SHT31;64036;48.266;14.192;2023-11-19T14:09:48;8.46;79.53
75457;SHT31;64036;48.266;14.192;2023-11-19T14:12:13;8.30;79.36
75457;SHT31;64036;48.266;14.192;2023-11-19T14:14:39;8.09;79.79
75457;SHT31;64036;48.266;14.192;2023-11-19T14:17:04;8.00;80.22
75457;SHT31;64036;48.266;14.192;2023-11-19T14:19:30;7.96;80.42
75457;SHT31;64036;48.266;14.192;2023-11-19T14:21:55;7.91;80.46
75457;SHT31;64036;48.266;14.192;2023-11-19T14:24:21;7.91;80.54
75457;SHT31;64036;48.266;14.192;2023-11-19T14:26:47;7.90;80.58
75457;SHT31;64036;48.266;14.192;2023-11-19T14:29:14;7.85;80.62
75457;SHT31;64036;48.266;14.192;2023-11-19T14:31:39;7.83;80.67
75457;SHT31;64036;48.266;14.192;2023-11-19T14:34:05;7.81;80.74
75457;SHT31;64036;48.266;14.192;2023-11-19T14:36:30;7.78;80.79
75457;SHT31;64036;48.266;14.192;2023-11-19T14:38:56;7.80;80.90
75457;SHT31;64036;48.266;14.192;2023-11-19T14:41:23;7.82;80.90
75457;SHT31;64036;48.266;14.192;2023-11-19T14:43:49;7.85;80.97
75457;SHT31;64036;48.266;14.192;2023-11-19T14:46:14;7.84;80.81
75457;SHT31;64036;48.266;14.192;2023-11-19T14:48:40;7.81;80.79
75457;SHT31;64036;48.266;14.192;2023-11-19T14:51:05;7.76;80.73
75457;SHT31;64036;48.266;14.192;2023-11-19T14:53:32;7.68;80.80
75457;SHT31;64036;48.266;14.192;2023-11-19T14:55:58;7.59;80.94
75457;SHT31;64036;48.266;14.192;2023-11-19T14:58:23;7.53;81.09
75457;SHT31;64036;48.266;14.192;2023-11-19T15:00:51;7.45;81.27
75457;SHT31;64036;48.266;14.192;2023-11-19T15:03:16;7.40;81.41
75457;SHT31;64036;48.266;14.192;2023-11-19T15:05:44;7.32;81.65
75457;SHT31;64036;48.266;14.192;2023-11-19T15:08:11;7.30;81.84
75457;SHT31;64036;48.266;14.192;2023-11-19T15:10:37;7.24;81.90
75457;SHT31;64036;48.266;14.192;2023-11-19T15:13:03;7.19;82.03
75457;SHT31;64036;48.266;14.192;2023-11-19T15:15:29;7.15;82.10
75457;SHT31;64036;48.266;14.192;2023-11-19T15:17:54;7.15;82.22
75457;SHT31;64036;48.266;14.192;2023-11-19T15:20:20;7.16;82.27
75457;SHT31;64036;48.266;14.192;2023-11-19T15:22:46;7.15;82.17
75457;SHT31;64036;48.266;14.192;2023-11-19T15:25:12;7.10;82.16
75457;SHT31;64036;48.266;14.192;2023-11-19T15:27:38;7.02;82.25
75457;SHT31;64036;48.266;14.192;2023-11-19T15:30:04;6.98;82.41
75457;SHT31;64036;48.266;14.192;2023-11-19T15:32:30;6.96;82.52
75457;SHT31;64036;48.266;14.192;2023-11-19T15:34:59;6.95;82.54
75457;SHT31;64036;48.266;14.192;2023-11-19T15:37:25;6.92;82.58
75457;SHT31;64036;48.266;14.192;2023-11-19T15:39:50;6.87;82.61
75457;SHT31;64036;48.266;14.192;2023-11-19T15:42:16;6.85;82.70
75457;SHT31;64036;48.266;14.192;2023-11-19T15:44:43;6.79;82.70
75457;SHT31;64036;48.266;14.192;2023-11-19T15:47:09;6.71;82.87
75457;SHT31;64036;48.266;14.192;2023-11-19T15:49:39;6.66;83.06
75457;SHT31;64036;48.266;14.192;2023-11-19T15:52:05;6.62;83.18
75457;SHT31;64036;48.266;14.192;2023-11-19T15:54:30;6.57;83.33
75457;SHT31;64036;48.266;14.192;2023-11-19T15:56:56;6.56;83.39